Time;durP1;ratioP1;P1;durP2;ratioP2;P2;SDS_P1;SDS_P2;PMS_P1;PMS_P2;Temp;Humidity;BMP_temperature;BMP_pressure;BME280_temperature;BME280_humidity;BME280_pressure;Samples;Min_cycle;Max_cycle;Signal;HPM_P1;HPM_P2
2023/03/09 00:00:27;;;;;;;18.15;9.52;;;3.50;99.90;;;;;;5063040;28;20071;-87
2023/03/09 00:02:53;;;;;;;17.85;9.00;;;1.70;99.90;;;;;;5060415;28;20037;-85
2023/03/09 00:05:20;;;;;;;16.30;8.38;;;1.70;99.90;;;;;;5026812;28;20044;-87
2023/03/09 00:07:46;;;;;;;18.73;9.43;;;1.70;99.90;;;;;;5062361;28;20443;-86
2023/03/09 00:10:14;;;;;;;18.45;9.63;;;1.70;99.90;;;;;;5044927;28;20037;-86
2023/03/09 00:12:41;;;;;;;15.65;9.13;;;1.70;99.90;;;;;;5045065;28;20047;-88
2023/03/09 00:15:08;;;;;;;19.13;8.90;;;3.60;99.90;;;;;;5046902;28;20037;-86
2023/03/09 00:17:34;;;;;;;16.20;9.48;;;1.80;99.90;;;;;;5044392;28;20032;-85
2023/03/09 00:20:16;;;;;;;18.45;9.27;;;1.80;99.90;;;;;;5064853;28;20566;-86
2023/03/09 00:22:46;;;;;;;18.60;9.73;;;1.80;99.90;;;;;;5061575;28;20384;-86
2023/03/09 00:25:13;;;;;;;19.17;10.25;;;1.70;99.90;;;;;;5045311;28;20067;-86
2023/03/09 00:27:41;;;;;;;18.83;9.77;;;3.50;99.90;;;;;;5046320;28;20040;-86
2023/03/09 00:30:08;;;;;;;20.00;9.95;;;1.80;99.90;;;;;;5058322;28;20036;-86
2023/03/09 00:32:34;;;;;;;18.67;10.13;;;1.80;99.90;;;;;;5054378;28;20508;-86
2023/03/09 00:35:00;;;;;;;19.10;10.38;;;3.60;99.90;;;;;;5063498;28;20076;-87
2023/03/09 00:37:26;;;;;;;18.45;10.15;;;1.80;99.90;;;;;;5029883;28;20441;-86
2023/03/09 00:39:51;;;;;;;20.23;10.63;;;1.70;99.90;;;;;;5064170;28;20047;-87
2023/03/09 00:42:17;;;;;;;17.65;10.18;;;1.70;99.90;;;;;;5063347;28;20041;-89
2023/03/09 00:44:43;;;;;;;18.80;9.77;;;1.70;99.90;;;;;;5046275;28;20025;-86
2023/03/09 00:47:08;;;;;;;19.75;11.30;;;2.40;99.90;;;;;;5045588;28;20069;-87
2023/03/09 00:49:34;;;;;;;18.42;10.25;;;2.20;99.90;;;;;;5047028;28;20043;-86
2023/03/09 00:52:00;;;;;;;19.58;10.77;;;1.80;99.90;;;;;;5062890;28;20101;-86
2023/03/09 00:54:25;;;;;;;21.83;10.68;;;1.70;99.90;;;;;;5046041;28;21059;-86
2023/03/09 00:56:51;;;;;;;18.42;10.45;;;1.70;99.90;;;;;;5062095;28;20131;-85
2023/03/09 00:59:17;;;;;;;19.73;10.85;;;1.70;99.90;;;;;;5045919;28;20045;-87
2023/03/09 01:01:42;;;;;;;18.27;10.43;;;3.00;99.90;;;;;;5044956;28;20032;-87
2023/03/09 01:04:08;;;;;;;17.73;9.85;;;1.50;99.90;;;;;;5046630;28;20028;-87
2023/03/09 01:06:34;;;;;;;20.02;10.13;;;1.70;99.90;;;;;;5065689;28;20158;-86
2023/03/09 01:09:00;;;;;;;18.08;9.73;;;1.60;99.90;;;;;;5029122;28;20052;-87
2023/03/09 01:11:26;;;;;;;20.85;10.20;;;1.80;99.90;;;;;;5061909;28;21354;-86
2023/03/09 01:13:52;;;;;;;18.52;10.45;;;3.00;99.90;;;;;;5063411;28;20041;-85
2023/03/09 01:16:18;;;;;;;18.10;10.13;;;1.60;99.90;;;;;;5060056;28;20139;-85
2023/03/09 01:18:44;;;;;;;20.90;10.60;;;1.50;99.90;;;;;;5063911;28;20123;-87
2023/03/09 01:21:10;;;;;;;19.10;10.50;;;1.50;99.90;;;;;;5059808;28;20275;-88
2023/03/09 01:23:37;;;;;;;19.92;9.95;;;1.50;99.90;;;;;;5044959;28;20532;-86
2023/03/09 01:26:04;;;;;;;22.35;11.30;;;1.50;99.90;;;;;;5059921;28;20044;-85
2023/03/09 01:28:30;;;;;;;19.23;10.82;;;1.50;99.90;;;;;;5064037;28;20037;-86
2023/03/09 01:30:56;;;;;;;18.38;10.60;;;1.50;99.90;;;;;;5061854;28;20457;-86
2023/03/09 01:33:22;;;;;;;20.25;10.55;;;1.50;99.90;;;;;;5047092;28;20185;-86
2023/03/09 01:35:48;;;;;;;18.67;10.10;;;1.40;99.90;;;;;;5061518;28;20047;-86
2023/03/09 01:38:13;;;;;;;20.77;10.70;;;1.30;99.90;;;;;;5060509;28;20112;-85
2023/03/09 01:40:39;;;;;;;19.30;10.32;;;1.50;99.90;;;;;;5064472;28;20124;-87
2023/03/09 01:43:23;;;;;;;17.15;9.85;;;1.20;99.90;;;;;;5061888;28;20032;-85
2023/03/09 01:45:49;;;;;;;19.00;10.52;;;1.30;99.90;;;;;;5043885;28;20048;-86
2023/03/09 01:48:15;;;;;;;17.55;9.57;;;1.30;99.90;;;;;;5063066;28;20060;-86
2023/03/09 01:50:42;;;;;;;17.63;9.40;;;1.30;99.90;;;;;;5043278;28;20504;-86
2023/03/09 01:53:13;;;;;;;18.23;9.60;;;1.30;99.90;;;;;;5062975;28;20037;-87
2023/03/09 01:55:46;;;;;;;17.27;9.13;;;1.20;99.90;;;;;;5079381;28;20416;-85
2023/03/09 01:58:20;;;;;;;15.65;9.10;;;1.20;99.90;;;;;;5063414;28;20328;-86
2023/03/09 02:00:50;;;;;;;16.88;9.10;;;1.20;99.90;;;;;;5061628;28;20900;-85
2023/03/09 02:03:22;;;;;;;17.38;10.07;;;1.10;99.90;;;;;;5063716;28;20039;-90
2023/03/09 02:06:06;;;;;;;16.38;9.43;;;1.10;99.90;;;;;;5061783;28;20136;-87
2023/03/09 02:08:32;;;;;;;16.40;9.20;;;0.60;99.90;;;;;;5067554;28;20545;-86
2023/03/09 02:11:03;;;;;;;17.40;9.00;;;1.10;99.90;;;;;;5066462;28;20116;-86
2023/03/09 02:13:36;;;;;;;17.63;9.32;;;1.00;99.90;;;;;;5066451;28;20059;-86
2023/03/09 02:16:02;;;;;;;;;;;1.00;99.90;;;;;;5062737;28;20048;-86
2023/03/09 02:18:28;;;;;;;17.42;9.95;;;0.90;99.90;;;;;;5067583;28;20293;-86
2023/03/09 02:20:53;;;;;;;21.30;9.80;;;0.90;99.90;;;;;;5066691;28;20517;-85
2023/03/09 02:23:43;;;;;;;19.90;10.77;;;0.90;99.90;;;;;;5065115;28;20043;-86
2023/03/09 02:26:12;;;;;;;17.60;10.25;;;0.70;99.90;;;;;;5081255;28;20325;-85
2023/03/09 02:28:38;;;;;;;21.13;11.63;;;0.90;99.90;;;;;;5066192;28;20072;-85
2023/03/09 02:31:05;;;;;;;20.30;11.45;;;0.90;99.90;;;;;;5064089;28;20128;-86
2023/03/09 02:33:30;;;;;;;22.35;11.05;;;0.80;99.90;;;;;;5067833;28;20091;-86
2023/03/09 02:35:59;;;;;;;19.75;10.80;;;0.90;99.90;;;;;;5078976;28;20076;-87
2023/03/09 02:38:25;;;;;;;20.75;11.93;;;0.80;99.90;;;;;;5067535;28;20032;-86
2023/03/09 02:40:52;;;;;;;22.98;12.25;;;0.50;99.90;;;;;;5048420;28;20172;-86
2023/03/09 02:43:23;;;;;;;23.73;12.80;;;1.20;99.90;;;;;;5061992;28;20120;-85
2023/03/09 02:45:51;;;;;;;22.25;12.25;;;0.80;99.90;;;;;;5063391;28;20039;-86
2023/03/09 02:48:16;;;;;;;21.17;11.93;;;2.00;99.90;;;;;;5062670;28;20477;-86
2023/03/09 02:50:43;;;;;;;21.13;11.57;;;0.70;99.90;;;;;;5030013;28;20040;-86
2023/03/09 02:53:10;;;;;;;22.80;12.60;;;0.80;99.90;;;;;;5030156;28;20044;-86
2023/03/09 02:55:36;;;;;;;21.20;12.15;;;0.80;99.90;;;;;;5065800;28;20094;-86
2023/03/09 02:58:02;;;;;;;21.95;11.60;;;0.60;99.90;;;;;;5047255;28;20451;-87
2023/03/09 03:00:28;;;;;;;20.83;11.73;;;0.70;99.90;;;;;;5029992;28;20047;-86
2023/03/09 03:02:54;;;;;;;21.00;12.13;;;0.80;99.90;;;;;;5064570;28;20110;-86
2023/03/09 03:05:20;;;;;;;20.25;11.18;;;0.20;99.90;;;;;;5081796;28;20048;-87
2023/03/09 03:07:46;;;;;;;25.48;12.18;;;0.60;99.90;;;;;;5063584;28;20093;-86
2023/03/09 03:10:13;;;;;;;22.90;11.95;;;0.70;99.90;;;;;;5063790;28;20116;-86
2023/03/09 03:12:39;;;;;;;22.52;12.85;;;0.70;99.90;;;;;;5065206;28;20164;-87
2023/03/09 03:15:05;;;;;;;20.88;11.70;;;;;;;;;;5046201;28;20086;-85
2023/03/09 03:17:31;;;;;;;24.38;12.50;;;0.70;99.90;;;;;;5062296;28;20040;-86
2023/03/09 03:19:56;;;;;;;23.77;12.30;;;0.70;99.90;;;;;;5055310;28;20102;-85
2023/03/09 03:22:22;;;;;;;26.52;13.18;;;0.70;99.90;;;;;;5062269;28;20040;-86
2023/03/09 03:24:48;;;;;;;24.42;13.07;;;0.50;99.90;;;;;;5065183;28;20032;-85
2023/03/09 03:27:14;;;;;;;23.88;13.32;;;0.70;99.90;;;;;;5046538;28;20068;-87
2023/03/09 03:29:40;;;;;;;25.65;13.40;;;0.40;99.90;;;;;;5056292;28;20455;-88
2023/03/09 03:32:06;;;;;;;23.85;12.95;;;0.70;99.90;;;;;;5031320;28;20032;-86
2023/03/09 03:34:32;;;;;;;27.05;13.88;;;0.70;99.90;;;;;;5065305;28;20109;-86
2023/03/09 03:36:58;;;;;;;25.45;13.55;;;0.80;99.90;;;;;;5045635;28;20036;-87
2023/03/09 03:39:23;;;;;;;26.13;13.57;;;0.80;99.90;;;;;;5047663;28;20580;-86
2023/03/09 03:41:49;;;;;;;24.70;13.43;;;0.70;99.90;;;;;;5047891;28;20139;-88
2023/03/09 03:44:15;;;;;;;26.70;13.50;;;0.80;99.90;;;;;;5047827;28;20413;-86
2023/03/09 03:46:40;;;;;;;26.17;13.80;;;0.80;99.90;;;;;;5063487;28;20087;-86
2023/03/09 03:49:06;;;;;;;28.73;15.10;;;0.80;99.90;;;;;;5062816;28;20122;-86
2023/03/09 03:51:32;;;;;;;27.05;14.32;;;0.80;99.90;;;;;;5044188;28;20048;-86
2023/03/09 03:53:58;;;;;;;25.48;14.32;;;1.90;99.90;;;;;;5055004;28;20064;-86
2023/03/09 03:56:23;;;;;;;27.58;14.27;;;0.90;99.90;;;;;;5065424;28;20039;-88
2023/03/09 03:58:49;;;;;;;27.25;14.55;;;0.90;99.90;;;;;;5024935;28;20040;-86
2023/03/09 04:01:15;;;;;;;27.15;14.70;;;0.90;99.90;;;;;;5027675;28;20182;-88
2023/03/09 04:03:41;;;;;;;27.30;14.73;;;0.90;99.90;;;;;;5046752;28;20075;-85
2023/03/09 04:06:07;;;;;;;28.67;15.32;;;0.90;99.90;;;;;;5016082;28;20505;-86
2023/03/09 04:08:33;;;;;;;27.85;14.88;;;1.50;99.90;;;;;;5064653;28;20123;-88
2023/03/09 04:11:04;;;;;;;27.65;14.63;;;1.00;99.90;;;;;;5030671;28;20055;-87
2023/03/09 04:13:29;;;;;;;30.17;15.35;;;1.00;99.90;;;;;;5060928;28;20584;-85
2023/03/09 04:15:55;;;;;;;29.10;15.75;;;2.20;99.90;;;;;;5063506;28;20048;-87
2023/03/09 04:18:21;;;;;;;31.40;17.02;;;1.00;99.90;;;;;;5030686;28;20634;-86
2023/03/09 04:20:46;;;;;;;28.85;15.23;;;1.00;99.90;;;;;;5047440;28;20459;-87
2023/03/09 04:23:12;;;;;;;28.58;14.93;;;0.90;99.90;;;;;;5056079;28;20548;-85
2023/03/09 04:25:38;;;;;;;29.70;15.25;;;0.80;99.90;;;;;;5046873;28;20120;-85
2023/03/09 04:28:04;;;;;;;26.80;14.68;;;2.50;99.90;;;;;;5034407;28;20033;-86
2023/03/09 04:30:30;;;;;;;28.30;14.85;;;1.10;99.90;;;;;;5061401;28;20493;-88
2023/03/09 04:32:56;;;;;;;26.95;14.50;;;1.10;99.90;;;;;;5029970;28;20579;-86
2023/03/09 04:35:22;;;;;;;27.25;14.05;;;1.00;99.90;;;;;;5057460;28;20044;-87
2023/03/09 04:37:47;;;;;;;27.42;14.60;;;1.10;99.90;;;;;;5045535;28;20501;-86
2023/03/09 04:40:14;;;;;;;29.17;14.70;;;1.00;99.90;;;;;;5045835;28;20489;-87
2023/03/09 04:42:40;;;;;;;26.13;13.85;;;1.10;99.90;;;;;;5063207;28;20067;-87
2023/03/09 04:45:06;;;;;;;27.45;14.80;;;1.10;99.90;;;;;;5045872;28;20060;-91
2023/03/09 04:47:32;;;;;;;28.80;14.30;;;0.80;99.90;;;;;;5062793;28;20040;-86
2023/03/09 04:49:58;;;;;;;25.70;13.45;;;1.00;99.90;;;;;;5062814;28;20117;-86
2023/03/09 04:52:24;;;;;;;24.77;13.23;;;1.00;99.90;;;;;;5042169;28;20068;-87
2023/03/09 04:54:50;;;;;;;24.85;13.60;;;1.00;99.90;;;;;;5047011;28;20340;-87
2023/03/09 04:57:17;;;;;;;26.30;13.95;;;1.00;99.90;;;;;;5058771;28;20073;-86
2023/03/09 04:59:43;;;;;;;26.00;12.88;;;0.90;99.90;;;;;;5055916;28;20101;-86
2023/03/09 05:02:08;;;;;;;24.80;12.82;;;0.90;99.90;;;;;;5060491;28;20037;-87
2023/03/09 05:04:36;;;;;;;24.00;12.88;;;1.00;99.90;;;;;;5047622;28;20039;-87
2023/03/09 05:07:02;;;;;;;24.02;12.93;;;1.80;99.90;;;;;;5046899;28;20048;-87
2023/03/09 05:09:28;;;;;;;25.95;13.13;;;0.90;99.90;;;;;;5045418;28;20046;-87
2023/03/09 05:11:53;;;;;;;25.35;13.80;;;0.90;99.90;;;;;;5027189;28;20127;-87
2023/03/09 05:14:19;;;;;;;23.40;13.13;;;0.90;99.90;;;;;;5046531;28;20105;-87
2023/03/09 05:16:48;;;;;;;26.98;13.27;;;0.90;99.90;;;;;;5065027;28;20040;-86
2023/03/09 05:19:13;;;;;;;25.23;13.52;;;0.90;99.90;;;;;;5029792;28;20040;-87
2023/03/09 05:21:39;;;;;;;25.40;13.45;;;1.40;99.90;;;;;;5028728;28;20045;-86
2023/03/09 05:24:05;;;;;;;25.23;13.52;;;0.90;99.90;;;;;;5044621;28;20028;-87
2023/03/09 05:26:31;;;;;;;24.65;13.23;;;0.90;99.90;;;;;;5028257;28;20228;-86
2023/03/09 05:28:56;;;;;;;25.23;13.43;;;1.00;99.90;;;;;;5046632;28;20179;-86
2023/03/09 05:31:23;;;;;;;25.48;13.80;;;;;;;;;;5031080;28;20036;-87
2023/03/09 05:33:48;;;;;;;23.65;12.98;;;0.90;99.90;;;;;;5060999;28;20068;-88
2023/03/09 05:36:19;;;;;;;27.63;13.95;;;0.90;99.90;;;;;;5044836;28;20472;-86
2023/03/09 05:38:45;;;;;;;24.52;13.80;;;0.90;99.90;;;;;;5065316;28;20039;-86
2023/03/09 05:41:11;;;;;;;25.05;13.80;;;0.80;99.90;;;;;;5065842;28;20040;-88
2023/03/09 05:43:41;;;;;;;26.17;13.52;;;0.90;99.90;;;;;;5048604;28;20044;-87
2023/03/09 05:46:11;;;;;;;25.80;14.40;;;0.90;99.90;;;;;;5048899;28;20169;-87
2023/03/09 05:48:37;;;;;;;27.83;14.20;;;0.90;99.90;;;;;;5066159;28;20033;-87
2023/03/09 05:51:04;;;;;;;26.42;14.05;;;0.80;99.90;;;;;;5064204;28;20052;-86
2023/03/09 05:53:31;;;;;;;25.55;13.73;;;0.80;99.90;;;;;;5066991;28;20040;-87
2023/03/09 05:55:58;;;;;;;26.55;14.80;;;0.80;99.90;;;;;;5047490;28;20045;-86
2023/03/09 05:58:24;;;;;;;25.45;14.20;;;0.80;99.90;;;;;;5052076;28;20047;-88
2023/03/09 06:00:52;;;;;;;26.88;14.45;;;0.80;99.90;;;;;;5046032;28;20090;-87
2023/03/09 06:03:18;;;;;;;26.52;14.52;;;0.80;99.90;;;;;;5047741;28;20047;-87
2023/03/09 06:05:44;;;;;;;24.75;14.20;;;0.80;99.90;;;;;;5043293;28;20047;-85
2023/03/09 06:08:11;;;;;;;24.65;13.27;;;2.00;99.90;;;;;;5041998;28;20048;-87
2023/03/09 06:10:37;;;;;;;27.55;14.55;;;-1.10;99.90;;;;;;5040489;28;20044;-87
2023/03/09 06:13:03;;;;;;;25.13;13.65;;;0.90;99.90;;;;;;5066354;28;20081;-86
2023/03/09 06:15:28;;;;;;;24.55;14.02;;;0.80;99.90;;;;;;5031447;28;20177;-87
2023/03/09 06:17:54;;;;;;;23.58;13.48;;;0.90;99.90;;;;;;5032818;28;20036;-87
2023/03/09 06:20:20;;;;;;;24.52;13.98;;;1.70;99.90;;;;;;5049114;28;20097;-88
2023/03/09 06:22:46;;;;;;;22.27;12.63;;;0.70;99.90;;;;;;5047184;28;20038;-88
2023/03/09 06:25:12;;;;;;;24.38;14.32;;;0.90;99.90;;;;;;5062805;28;20044;-86
2023/03/09 06:27:38;;;;;;;27.25;13.48;;;0.90;99.90;;;;;;5039323;28;20066;-88
2023/03/09 06:30:04;;;;;;;23.42;13.90;;;0.80;99.90;;;;;;5049031;28;20098;-87
2023/03/09 06:32:36;;;;;;;25.20;13.80;;;0.90;99.90;;;;;;5045187;28;20055;-86
2023/03/09 06:35:02;;;;;;;25.30;13.15;;;0.90;99.90;;;;;;5044486;28;20114;-83
2023/03/09 06:37:28;;;;;;;23.13;12.73;;;;;;;;;;5027058;28;20119;-85
2023/03/09 06:39:54;;;;;;;23.55;12.63;;;1.00;99.90;;;;;;5064159;28;20040;-89
2023/03/09 06:42:19;;;;;;;22.33;12.07;;;1.80;99.90;;;;;;5048198;28;20040;-85
2023/03/09 06:44:45;;;;;;;22.05;12.80;;;1.00;99.90;;;;;;5030620;28;20243;-85
2023/03/09 06:47:12;;;;;;;23.00;12.20;;;1.00;99.90;;;;;;5029269;28;20486;-85
2023/03/09 06:49:38;;;;;;;20.60;11.82;;;1.00;99.90;;;;;;5066138;28;20032;-87
2023/03/09 06:52:06;;;;;;;22.23;11.98;;;1.10;99.90;;;;;;5047547;28;20047;-85
2023/03/09 06:54:31;;;;;;;22.15;12.68;;;1.10;99.90;;;;;;5066145;28;20086;-84
2023/03/09 06:56:57;;;;;;;21.15;11.57;;;1.10;99.90;;;;;;5046514;28;20455;-85
2023/03/09 06:59:23;;;;;;;20.75;12.50;;;;;;;;;;5048446;28;20051;-86
2023/03/09 07:01:49;;;;;;;22.38;12.40;;;1.20;99.90;;;;;;5046305;28;20101;-85
2023/03/09 07:04:16;;;;;;;20.63;12.07;;;1.20;99.90;;;;;;5048868;28;20040;-85
2023/03/09 07:06:42;;;;;;;23.05;12.32;;;1.20;99.90;;;;;;5062924;28;20489;-86
2023/03/09 07:09:08;;;;;;;20.90;11.80;;;1.30;99.90;;;;;;5031230;28;20081;-86
2023/03/09 07:11:34;;;;;;;24.85;12.65;;;;;;;;;;5059189;28;21202;-87
2023/03/09 07:14:00;;;;;;;20.60;11.63;;;1.30;99.90;;;;;;5026950;28;20097;-87
2023/03/09 07:16:27;;;;;;;22.13;12.88;;;;;;;;;;5045956;28;20032;-84
2023/03/09 07:18:53;;;;;;;22.55;12.00;;;1.40;99.90;;;;;;5063426;28;20456;-86
2023/03/09 07:21:18;;;;;;;22.17;12.30;;;1.40;99.90;;;;;;5048033;28;20064;-88
2023/03/09 07:23:44;;;;;;;20.83;11.95;;;1.50;99.90;;;;;;5062667;28;20036;-88
2023/03/09 07:26:10;;;;;;;21.92;12.52;;;1.40;99.90;;;;;;5047362;28;20035;-86
2023/03/09 07:28:36;;;;;;;20.80;12.18;;;1.40;99.90;;;;;;5065048;28;20048;-86
2023/03/09 07:31:10;;;;;;;21.48;12.40;;;1.50;99.90;;;;;;5047472;28;20086;-87
2023/03/09 07:33:37;;;;;;;19.88;11.60;;;1.50;99.90;;;;;;5044025;28;20164;-88
2023/03/09 07:36:04;;;;;;;24.17;13.07;;;1.50;99.90;;;;;;5045137;28;22066;-85
2023/03/09 07:38:30;;;;;;;20.88;12.30;;;1.60;99.90;;;;;;5026935;28;20037;-88
2023/03/09 07:40:58;;;;;;;19.42;11.88;;;1.60;99.90;;;;;;5064316;28;20497;-88
2023/03/09 07:43:23;;;;;;;23.00;12.18;;;1.70;99.90;;;;;;5045053;28;20422;-84
2023/03/09 07:45:49;;;;;;;19.73;11.30;;;1.80;99.90;;;;;;5063612;28;20134;-85
2023/03/09 07:48:15;;;;;;;20.15;11.35;;;2.10;99.90;;;;;;5063653;28;20036;-83
2023/03/09 07:50:42;;;;;;;22.85;12.23;;;3.60;99.90;;;;;;5048794;28;20290;-88
2023/03/09 07:53:09;;;;;;;20.88;11.52;;;2.00;99.90;;;;;;5044440;28;20055;-87
2023/03/09 07:55:35;;;;;;;20.92;11.60;;;3.80;99.90;;;;;;5044616;28;20123;-89
2023/03/09 07:58:04;;;;;;;19.08;11.05;;;2.40;99.90;;;;;;5062232;28;20160;-84
2023/03/09 08:00:31;;;;;;;21.55;11.93;;;2.30;99.90;;;;;;5026876;28;20634;-86
2023/03/09 08:02:58;;;;;;;19.92;11.38;;;2.00;99.90;;;;;;5064832;28;20604;-86
2023/03/09 08:05:24;;;;;;;19.27;11.35;;;2.40;99.90;;;;;;5063288;28;20119;-88
2023/03/09 08:07:50;;;;;;;17.85;10.30;;;2.40;99.90;;;;;;5062834;28;20115;-86
2023/03/09 08:10:18;;;;;;;18.48;10.68;;;2.50;99.90;;;;;;5061258;28;20508;-87
2023/03/09 08:12:47;;;;;;;17.70;10.75;;;2.50;99.90;;;;;;5044630;28;20073;-88
2023/03/09 08:15:13;;;;;;;19.30;10.73;;;4.20;99.90;;;;;;5047128;28;20427;-85
2023/03/09 08:17:39;;;;;;;18.48;10.70;;;2.60;99.90;;;;;;5028609;28;20043;-85
2023/03/09 08:20:08;;;;;;;17.00;9.40;;;2.60;99.90;;;;;;5045354;28;20542;-85
2023/03/09 08:22:36;;;;;;;18.35;10.50;;;2.70;99.90;;;;;;5059700;28;20028;-87
2023/03/09 08:25:03;;;;;;;18.00;10.23;;;3.70;99.90;;;;;;5027766;28;20033;-85
2023/03/09 08:27:28;;;;;;;17.75;10.38;;;2.70;99.90;;;;;;5061644;28;20078;-85
2023/03/09 08:29:54;;;;;;;17.40;9.75;;;4.70;99.90;;;;;;5045825;28;20115;-87
2023/03/09 08:32:22;;;;;;;17.00;9.65;;;4.10;99.90;;;;;;5046464;28;20040;-90
2023/03/09 08:34:48;;;;;;;18.45;10.52;;;3.30;99.90;;;;;;5044355;28;20051;-87
2023/03/09 08:37:14;;;;;;;17.55;10.00;;;2.80;99.90;;;;;;5030658;28;20036;-88
2023/03/09 08:39:39;;;;;;;17.02;9.88;;;2.90;99.90;;;;;;5021823;28;20051;-88
2023/03/09 08:42:05;;;;;;;16.02;8.77;;;3.10;99.90;;;;;;5029929;28;20036;-86
2023/03/09 08:44:31;;;;;;;16.50;9.25;;;3.10;99.90;;;;;;5060512;28;20399;-84
2023/03/09 08:46:57;;;;;;;17.08;9.30;;;3.60;99.90;;;;;;5031081;28;20297;-87
2023/03/09 08:49:23;;;;;;;17.08;9.32;;;3.10;99.90;;;;;;5047868;28;20044;-86
2023/03/09 08:51:50;;;;;;;16.80;9.82;;;3.10;99.90;;;;;;5062788;28;20420;-86
2023/03/09 08:54:15;;;;;;;16.42;8.70;;;3.10;99.90;;;;;;5044000;28;20036;-84
2023/03/09 08:56:41;;;;;;;14.82;8.13;;;3.80;99.90;;;;;;5033737;28;20045;-88
2023/03/09 08:59:07;;;;;;;16.67;8.93;;;3.20;99.90;;;;;;5060805;28;20086;-84
2023/03/09 09:01:32;;;;;;;14.60;8.50;;;3.20;99.90;;;;;;5063970;28;20501;-85
2023/03/09 09:03:58;;;;;;;15.80;8.50;;;4.60;99.90;;;;;;5013388;28;20032;-86
2023/03/09 09:06:24;;;;;;;16.17;9.02;;;4.00;99.90;;;;;;5062692;28;20036;-85
2023/03/09 09:08:50;;;;;;;17.90;9.68;;;3.40;99.90;;;;;;5061002;28;20040;-86
2023/03/09 09:11:16;;;;;;;14.98;8.65;;;3.40;99.90;;;;;;5030825;28;20068;-86
2023/03/09 09:13:43;;;;;;;15.00;8.38;;;5.50;99.90;;;;;;5067043;28;20548;-86
2023/03/09 09:16:11;;;;;;;15.35;8.48;;;3.50;99.90;;;;;;5063602;28;20046;-87
2023/03/09 09:18:37;;;;;;;15.82;9.00;;;5.30;99.90;;;;;;5065902;28;20040;-87
2023/03/09 09:21:07;;;;;;;13.40;7.70;;;4.30;99.90;;;;;;5083635;28;20040;-86
2023/03/09 09:23:32;;;;;;;14.68;7.72;;;3.70;99.90;;;;;;5065946;28;20511;-89
2023/03/09 09:25:58;;;;;;;15.77;8.15;;;5.60;99.90;;;;;;5062895;28;20032;-87
2023/03/09 09:28:24;;;;;;;13.10;7.45;;;;;;;;;;5065434;28;20048;-88
2023/03/09 09:30:58;;;;;;;16.20;8.35;;;3.90;99.90;;;;;;5066599;28;20050;-87
2023/03/09 09:33:26;;;;;;;15.32;8.25;;;5.20;99.90;;;;;;5048899;28;20048;-86
2023/03/09 09:36:10;;;;;;;14.23;8.30;;;4.00;99.90;;;;;;5065066;28;20040;-88
2023/03/09 09:38:37;;;;;;;13.82;7.93;;;5.70;99.90;;;;;;5065660;28;20181;-86
2023/03/09 09:41:24;;;;;;;14.20;7.50;;;4.20;99.90;;;;;;5064766;28;20147;-86
2023/03/09 09:43:55;;;;;;;12.52;6.93;;;4.20;99.90;;;;;;5066161;28;20040;-86
2023/03/09 09:46:22;;;;;;;15.60;8.18;;;5.30;99.90;;;;;;5064679;28;20308;-88
2023/03/09 09:48:49;;;;;;;14.27;7.82;;;4.20;99.90;;;;;;5049317;28;20080;-87
2023/03/09 09:51:33;;;;;;;14.10;7.70;;;4.30;99.90;;;;;;5064464;28;20036;-88
2023/03/09 09:54:27;;;;;;;12.98;6.88;;;4.30;99.90;;;;;;5064933;28;20044;-88
2023/03/09 09:56:58;;;;;;;12.65;6.90;;;4.40;99.90;;;;;;5048122;28;20055;-85
2023/03/09 09:59:50;;;;;;;13.15;6.80;;;4.40;99.90;;;;;;5065905;28;20167;-85
2023/03/09 10:02:48;;;;;;;12.43;6.63;;;5.70;99.90;;;;;;5061848;28;20040;-87
2023/03/09 10:05:25;;;;;;;13.48;7.18;;;4.60;99.90;;;;;;5049899;28;20082;-85
2023/03/09 10:07:51;;;;;;;12.90;7.07;;;4.80;99.90;;;;;;5064749;28;20033;-87
2023/03/09 10:10:26;;;;;;;13.30;6.72;;;5.70;99.90;;;;;;5049537;28;22261;-85
2023/03/09 10:12:54;;;;;;;12.15;6.28;;;6.60;99.90;;;;;;5050199;28;20040;-85
2023/03/09 10:15:27;;;;;;;12.82;6.65;;;5.20;99.90;;;;;;5065156;28;21503;-87
2023/03/09 10:18:02;;;;;;;16.75;6.90;;;5.20;99.90;;;;;;5048496;28;20063;-85
2023/03/09 10:20:35;;;;;;;13.98;7.18;;;5.60;99.90;;;;;;5065589;28;20041;-87
2023/03/09 10:23:22;;;;;;;15.85;6.72;;;5.10;99.90;;;;;;5064298;28;20053;-85
2023/03/09 10:25:52;;;;;;;15.93;6.72;;;4.90;99.90;;;;;;5062715;28;20100;-86
2023/03/09 10:28:24;;;;;;;12.70;6.88;;;5.40;99.90;;;;;;5065347;28;20115;-87
2023/03/09 10:31:08;;;;;;;11.85;6.90;;;6.00;99.90;;;;;;5067196;28;20529;-87
2023/03/09 10:33:44;;;;;;;12.48;6.78;;;5.80;99.90;;;;;;5064144;28;20083;-85
2023/03/09 10:36:27;;;;;;;13.05;6.18;;;5.50;99.90;;;;;;5062540;28;20505;-85
2023/03/09 10:38:56;;;;;;;12.23;6.28;;;5.60;99.90;;;;;;5064001;28;20051;-83
2023/03/09 10:41:22;;;;;;;11.85;6.07;;;6.00;99.90;;;;;;5032176;28;20087;-83
2023/03/09 10:43:48;;;;;;;11.60;6.03;;;5.80;99.90;;;;;;5045102;28;20044;-86
2023/03/09 10:46:20;;;;;;;11.77;6.22;;;4.60;99.90;;;;;;5044537;28;20573;-86
2023/03/09 10:48:48;;;;;;;10.68;5.60;;;4.80;99.90;;;;;;5064909;28;20035;-85
2023/03/09 10:51:20;;;;;;;11.27;5.57;;;6.20;99.90;;;;;;5046691;28;20247;-86
2023/03/09 10:53:48;;;;;;;12.32;5.90;;;4.80;99.90;;;;;;5065546;28;20040;-85
2023/03/09 10:56:22;;;;;;;11.55;6.10;;;5.20;99.90;;;;;;5030168;28;20044;-86
2023/03/09 10:59:13;;;;;;;11.73;6.03;;;4.80;99.90;;;;;;5066333;28;20048;-85
2023/03/09 11:01:45;;;;;;;10.68;5.65;;;4.90;99.90;;;;;;5065727;28;20375;-86
2023/03/09 11:04:23;;;;;;;11.07;5.72;;;4.80;99.90;;;;;;5061282;28;20359;-86
2023/03/09 11:06:57;;;;;;;9.75;5.28;;;4.80;99.90;;;;;;5066506;28;20028;-85
2023/03/09 11:09:55;;;;;;;11.27;5.20;;;5.70;99.90;;;;;;5065003;28;20115;-84
2023/03/09 11:12:23;;;;;;;11.38;5.32;;;4.90;99.90;;;;;;5012754;28;20043;-86
2023/03/09 11:15:06;;;;;;;10.23;5.15;;;5.10;99.90;;;;;;5066292;28;20505;-87
2023/03/09 11:17:37;;;;;;;10.93;4.95;;;4.90;99.90;;;;;;5081808;28;20495;-86
2023/03/09 11:20:12;;;;;;;10.88;5.78;;;5.00;99.90;;;;;;5064628;28;20057;-86
2023/03/09 11:22:56;;;;;;;11.98;6.30;;;6.20;99.90;;;;;;5064089;28;20033;-84
2023/03/09 11:25:43;;;;;;;11.30;6.13;;;6.20;99.90;;;;;;5065995;28;20247;-87
2023/03/09 11:28:43;;;;;;;11.05;5.70;;;5.00;99.90;;;;;;5066809;28;20085;-86
2023/03/09 11:31:15;;;;;;;11.30;6.22;;;4.90;99.90;;;;;;5064999;28;20044;-87
2023/03/09 11:33:41;;;;;;;11.48;5.90;;;6.10;99.90;;;;;;5062576;28;20045;-86
2023/03/09 11:36:13;;;;;;;11.68;6.03;;;6.80;99.90;;;;;;5063428;28;20109;-86
2023/03/09 11:38:43;;;;;;;11.80;5.70;;;5.00;99.90;;;;;;5061800;28;20537;-86
2023/03/09 11:41:27;;;;;;;11.48;6.10;;;5.00;99.90;;;;;;5063942;28;20079;-87
2023/03/09 11:44:01;;;;;;;11.43;5.85;;;4.90;99.90;;;;;;5063212;28;20123;-86
2023/03/09 11:46:28;;;;;;;12.10;6.35;;;5.00;99.90;;;;;;5065152;28;20037;-87
2023/03/09 11:49:10;;;;;;;12.63;5.82;;;5.10;99.90;;;;;;5063372;28;20115;-86
2023/03/09 11:51:44;;;;;;;11.05;6.00;;;5.10;99.90;;;;;;5047198;28;20051;-86
2023/03/09 11:54:42;;;;;;;12.05;6.32;;;5.70;99.90;;;;;;5062373;28;20425;-86
2023/03/09 11:57:15;;;;;;;11.35;6.05;;;5.10;99.90;;;;;;5061533;28;20044;-87
2023/03/09 11:59:53;;;;;;;11.00;5.95;;;5.90;99.90;;;;;;5063953;28;20044;-85
2023/03/09 12:02:28;;;;;;;12.05;6.07;;;5.00;99.90;;;;;;5064464;28;20070;-89
2023/03/09 12:04:54;;;;;;;11.70;5.65;;;5.10;99.90;;;;;;5063802;28;20052;-87
2023/03/09 12:07:40;;;;;;;11.57;6.15;;;6.00;99.90;;;;;;5063552;28;20308;-86
2023/03/09 12:10:09;;;;;;;12.57;5.88;;;5.20;99.90;;;;;;5065633;28;20515;-86
2023/03/09 12:12:48;;;;;;;11.05;5.78;;;5.20;99.90;;;;;;5063221;28;20067;-89
2023/03/09 12:15:37;;;;;;;12.35;5.85;;;5.20;99.90;;;;;;5064868;28;20557;-86
2023/03/09 12:18:06;;;;;;;11.20;5.63;;;5.20;99.90;;;;;;5062594;28;20048;-84
2023/03/09 12:20:41;;;;;;;12.05;6.53;;;5.20;99.90;;;;;;5063710;28;20047;-86
2023/03/09 12:23:35;;;;;;;12.63;6.10;;;5.30;99.90;;;;;;5062376;28;20043;-86
2023/03/09 12:26:17;;;;;;;10.90;5.53;;;5.10;99.90;;;;;;5046742;28;20608;-86
2023/03/09 12:28:43;;;;;;;10.65;5.65;;;5.20;99.90;;;;;;5063893;28;20580;-86
2023/03/09 12:31:33;;;;;;;12.32;6.68;;;5.10;99.90;;;;;;5047567;28;20121;-84
2023/03/09 12:33:59;;;;;;;11.52;6.13;;;5.10;99.90;;;;;;5062758;28;20416;-83
2023/03/09 12:36:33;;;;;;;10.93;5.82;;;6.60;99.90;;;;;;5064476;28;20041;-87
2023/03/09 12:39:20;;;;;;;11.52;6.43;;;5.10;99.90;;;;;;5062351;28;20054;-88
2023/03/09 12:41:57;;;;;;;12.10;6.10;;;5.10;99.90;;;;;;5063537;28;20039;-86
2023/03/09 12:44:49;;;;;;;12.30;6.50;;;5.70;99.90;;;;;;5061648;28;20051;-86
2023/03/09 12:47:36;;;;;;;11.70;6.00;;;5.00;99.90;;;;;;5046888;28;20509;-85
2023/03/09 12:50:20;;;;;;;11.60;6.40;;;5.00;99.90;;;;;;5062467;28;20040;-85
2023/03/09 12:53:10;;;;;;;12.40;6.53;;;5.00;99.90;;;;;;5062108;28;20509;-86